createdAt,value
2022-08-23T00:00:13.277Z,86.50
2022-08-23T00:02:43.608Z,82.90
2022-08-23T00:05:12.746Z,80.83
2022-08-23T00:07:41.983Z,83.43
2022-08-23T00:10:10.804Z,84.87
2022-08-23T00:12:39.256Z,85.50
2022-08-23T00:15:08.928Z,89.10
2022-08-23T00:17:38.023Z,85.67
2022-08-23T00:20:09.282Z,91.43
2022-08-23T00:22:37.788Z,89.63
2022-08-23T00:25:06.462Z,84.37
2022-08-23T00:27:34.712Z,84.40
2022-08-23T00:30:02.960Z,85.00
2022-08-23T00:32:32.728Z,85.93
2022-08-23T00:35:01.480Z,92.53
2022-08-23T00:37:32.367Z,86.00
2022-08-23T00:40:00.656Z,88.53
2022-08-23T00:42:49.678Z,86.77
2022-08-23T00:45:36.866Z,93.60
2022-08-23T00:48:05.914Z,87.17
2022-08-23T00:50:36.063Z,87.37
2022-08-23T00:53:08.338Z,89.70
2022-08-23T00:55:36.872Z,86.27
2022-08-23T00:58:05.233Z,87.63
2022-08-23T01:00:33.899Z,84.30
2022-08-23T01:03:03.314Z,88.60
2022-08-23T01:05:48.013Z,88.43
2022-08-23T01:08:17.970Z,86.67
2022-08-23T01:10:49.014Z,89.10
2022-08-23T01:13:19.673Z,86.43
2022-08-23T01:15:48.928Z,83.90
2022-08-23T01:18:18.399Z,88.60
2022-08-23T01:20:51.403Z,85.60
2022-08-23T01:23:34.558Z,84.07
2022-08-23T01:26:04.289Z,86.17
2022-08-23T01:28:33.596Z,86.57
2022-08-23T01:31:02.234Z,86.23
2022-08-23T01:33:35.038Z,89.87
2022-08-23T01:36:04.434Z,88.63
2022-08-23T01:38:38.271Z,84.97
2022-08-23T01:41:08.210Z,92.73
2022-08-23T01:43:36.500Z,85.43
2022-08-23T01:46:09.047Z,88.23
2022-08-23T01:48:37.338Z,87.67
2022-08-23T01:51:05.721Z,91.90
2022-08-23T01:53:33.921Z,88.73
2022-08-23T01:56:02.575Z,87.73
2022-08-23T01:58:32.746Z,85.57
2022-08-23T02:01:01.946Z,83.33
2022-08-23T02:03:30.591Z,84.53
2022-08-23T02:05:58.875Z,94.27
2022-08-23T02:08:45.211Z,85.33
2022-08-23T02:11:15.542Z,84.53
2022-08-23T02:13:45.870Z,85.10
2022-08-23T02:16:14.830Z,87.10
2022-08-23T02:18:43.346Z,88.87
2022-08-23T02:21:11.615Z,79.87
2022-08-23T02:23:39.872Z,85.37
2022-08-23T02:26:08.211Z,85.10
2022-08-23T02:28:36.383Z,84.57
2022-08-23T02:31:06.000Z,87.07
2022-08-23T02:33:34.240Z,86.93
2022-08-23T02:36:02.860Z,91.37
2022-08-23T02:38:31.110Z,84.03
2022-08-23T02:41:00.777Z,85.27
2022-08-23T02:43:29.432Z,83.90
2022-08-23T02:45:57.704Z,84.67
2022-08-23T02:48:27.412Z,87.23
2022-08-23T02:51:00.252Z,86.30
2022-08-23T02:53:29.071Z,85.50
2022-08-23T02:55:57.330Z,86.90
2022-08-23T02:58:26.010Z,86.73
2022-08-23T03:00:54.874Z,84.13
2022-08-23T03:03:23.750Z,89.70
2022-08-23T03:05:53.539Z,84.50
2022-08-23T03:08:24.883Z,86.70
2022-08-23T03:10:53.731Z,88.33
2022-08-23T03:13:22.024Z,86.73
2022-08-23T03:15:50.651Z,86.93
2022-08-23T03:18:18.929Z,85.97
2022-08-23T03:20:48.561Z,81.07
2022-08-23T03:23:18.143Z,88.17
2022-08-23T03:25:47.012Z,85.40
2022-08-23T03:28:15.363Z,87.93
2022-08-23T03:30:43.974Z,78.40
2022-08-23T03:33:12.217Z,82.37
2022-08-23T03:35:40.442Z,88.37
2022-08-23T03:38:08.708Z,81.60
2022-08-23T03:40:38.553Z,85.47
2022-08-23T03:43:06.807Z,87.37
2022-08-23T03:45:35.186Z,86.53
2022-08-23T03:48:03.395Z,86.27
2022-08-23T03:50:31.716Z,89.53
2022-08-23T03:52:59.964Z,81.43
2022-08-23T03:55:28.197Z,89.93
2022-08-23T03:57:57.822Z,89.27
2022-08-23T04:00:26.105Z,91.47
2022-08-23T04:02:54.366Z,78.97
2022-08-23T04:05:22.937Z,86.27
2022-08-23T04:07:51.227Z,79.30
2022-08-23T04:10:19.438Z,83.97
2022-08-23T04:12:47.602Z,93.37
2022-08-23T04:15:18.547Z,78.53
2022-08-23T04:17:46.980Z,91.27
2022-08-23T04:20:15.168Z,80.10
2022-08-23T04:22:45.989Z,81.83
2022-08-23T04:25:34.264Z,83.23
2022-08-23T04:28:04.294Z,84.17
2022-08-23T04:30:34.268Z,91.60
2022-08-23T04:33:02.562Z,88.40
2022-08-23T04:35:30.867Z,84.23
2022-08-23T04:37:59.088Z,86.93
2022-08-23T04:40:44.611Z,80.30
2022-08-23T04:43:12.891Z,82.23
2022-08-23T04:45:42.719Z,83.63
2022-08-23T04:48:12.092Z,78.73
2022-08-23T04:50:40.476Z,88.03
2022-08-23T04:53:08.914Z,85.67
2022-08-23T04:55:37.857Z,101.47
2022-08-23T04:58:06.275Z,81.07
2022-08-23T05:00:34.567Z,79.30
2022-08-23T05:03:04.185Z,79.03
2022-08-23T05:05:33.491Z,82.37
2022-08-23T05:08:01.892Z,87.90
2022-08-23T05:10:30.220Z,81.27
2022-08-23T05:12:58.433Z,86.00
2022-08-23T05:15:26.610Z,90.43
2022-08-23T05:17:55.206Z,83.73
2022-08-23T05:20:24.842Z,81.27
2022-08-23T05:22:53.054Z,90.63
2022-08-23T05:25:21.308Z,81.80
2022-08-23T05:27:49.486Z,84.93
2022-08-23T05:30:17.707Z,78.27
2022-08-23T05:32:45.897Z,90.43
2022-08-23T05:35:14.193Z,83.27
2022-08-23T05:37:44.811Z,83.87
2022-08-23T05:40:14.501Z,84.97
2022-08-23T05:42:42.709Z,82.93
2022-08-23T05:45:11.317Z,84.30
2022-08-23T05:47:40.641Z,83.10
2022-08-23T05:50:09.334Z,83.37
2022-08-23T05:52:37.886Z,84.50
2022-08-23T05:55:08.002Z,85.43
2022-08-23T05:57:36.510Z,81.90
2022-08-23T06:00:06.629Z,82.17
2022-08-23T06:02:36.611Z,79.13
2022-08-23T06:05:05.449Z,85.23
2022-08-23T06:07:35.097Z,80.30
2022-08-23T06:10:03.705Z,87.80
2022-08-23T06:12:34.530Z,82.17
2022-08-23T06:15:03.273Z,82.03
2022-08-23T06:17:31.478Z,83.50
2022-08-23T06:19:59.718Z,85.40
2022-08-23T06:22:27.949Z,83.37
2022-08-23T06:24:56.163Z,80.77
2022-08-23T06:27:24.405Z,89.07
2022-08-23T06:29:53.974Z,87.07
2022-08-23T06:32:22.240Z,85.83
2022-08-23T06:34:50.482Z,86.80
2022-08-23T06:37:28.063Z,85.03
2022-08-23T06:39:57.902Z,84.97
2022-08-23T06:42:41.491Z,84.00
2022-08-23T06:45:11.503Z,94.53
2022-08-23T06:47:40.179Z,86.30
2022-08-23T06:50:09.254Z,79.50
2022-08-23T06:52:37.701Z,84.17
2022-08-23T06:55:08.603Z,83.40
2022-08-23T06:57:39.975Z,77.17
2022-08-23T07:00:10.021Z,89.77
2022-08-23T07:02:39.990Z,81.80
2022-08-23T07:05:08.522Z,86.83
2022-08-23T07:07:37.669Z,83.00
2022-08-23T07:10:12.276Z,84.33
2022-08-23T07:12:42.173Z,84.23
2022-08-23T07:15:11.329Z,81.00
2022-08-23T07:17:40.991Z,89.23
2022-08-23T07:20:09.657Z,88.30
2022-08-23T07:22:38.023Z,85.73
2022-08-23T07:25:06.487Z,91.97
2022-08-23T07:27:34.727Z,82.17
2022-08-23T07:30:03.603Z,79.33
2022-08-23T07:32:31.830Z,87.77
2022-08-23T07:35:01.473Z,84.50
2022-08-23T07:37:30.859Z,83.53
2022-08-23T07:39:59.193Z,95.97
2022-08-23T07:42:27.486Z,83.90
2022-08-23T07:44:55.875Z,81.43
2022-08-23T07:47:25.298Z,86.07
2022-08-23T07:49:53.543Z,84.03
2022-08-23T07:52:23.584Z,83.80
2022-08-23T07:54:51.860Z,80.70
2022-08-23T07:57:20.150Z,91.77
2022-08-23T07:59:48.948Z,89.97
2022-08-23T08:02:17.371Z,97.60
2022-08-23T08:04:45.677Z,83.37
2022-08-23T08:07:21.492Z,90.13
2022-08-23T08:09:51.273Z,95.87
2022-08-23T08:12:19.489Z,89.63
2022-08-23T08:14:48.757Z,87.77
2022-08-23T08:17:17.998Z,90.83
2022-08-23T08:19:46.206Z,87.33
2022-08-23T08:22:14.599Z,85.33
2022-08-23T08:24:42.854Z,93.37
2022-08-23T08:27:12.829Z,90.37
2022-08-23T08:29:41.925Z,90.50
2022-08-23T08:32:13.908Z,87.30
2022-08-23T08:34:42.658Z,87.37
2022-08-23T08:37:11.138Z,87.13
2022-08-23T08:39:45.474Z,87.83
2022-08-23T08:42:40.457Z,85.17
2022-08-23T08:45:12.214Z,92.70
2022-08-23T08:47:45.311Z,88.57
2022-08-23T08:50:17.961Z,87.30
2022-08-23T08:52:49.273Z,88.43
2022-08-23T08:55:21.064Z,91.73
2022-08-23T08:57:51.269Z,86.30
2022-08-23T09:00:20.757Z,88.03
2022-08-23T09:02:50.357Z,91.60
2022-08-23T09:05:20.500Z,85.57
2022-08-23T09:07:54.268Z,94.93
2022-08-23T09:10:29.032Z,91.93
2022-08-23T09:13:05.306Z,90.70
2022-08-23T09:15:36.332Z,95.47
2022-08-23T09:18:09.898Z,87.67
2022-08-23T09:20:39.336Z,90.03
2022-08-23T09:23:09.823Z,85.97
2022-08-23T09:25:38.188Z,90.47
2022-08-23T09:28:08.155Z,91.87
2022-08-23T09:30:50.226Z,88.27
2022-08-23T09:33:19.436Z,93.00
2022-08-23T09:36:03.926Z,88.37
2022-08-23T09:38:32.534Z,93.67
2022-08-23T09:41:01.129Z,91.47
2022-08-23T09:43:31.719Z,90.50
2022-08-23T09:46:02.120Z,92.73
2022-08-23T09:48:41.009Z,91.87
2022-08-23T09:51:17.931Z,90.13
2022-08-23T09:53:49.454Z,90.90
2022-08-23T09:56:20.629Z,89.13
2022-08-23T09:58:53.645Z,90.90
2022-08-23T10:01:26.101Z,93.97
2022-08-23T10:04:10.334Z,95.23
2022-08-23T10:06:39.333Z,88.43
2022-08-23T10:09:08.635Z,91.13
2022-08-23T10:11:40.684Z,92.17
2022-08-23T10:14:10.336Z,91.47
2022-08-23T10:16:42.083Z,92.53
2022-08-23T10:19:15.390Z,92.27
2022-08-23T10:21:51.307Z,93.17
2022-08-23T10:24:26.019Z,93.10
2022-08-23T10:27:01.331Z,95.40
2022-08-23T10:29:38.098Z,95.03
2022-08-23T10:32:12.646Z,89.43
2022-08-23T10:34:50.804Z,91.83
2022-08-23T10:37:36.885Z,93.03
2022-08-23T10:40:09.436Z,93.13
2022-08-23T10:42:40.217Z,98.97
2022-08-23T10:45:13.267Z,94.60
2022-08-23T10:47:53.946Z,92.73
2022-08-23T10:50:22.744Z,91.03
2022-08-23T10:52:55.506Z,92.27
2022-08-23T10:55:36.945Z,93.10
2022-08-23T10:58:06.996Z,91.63
2022-08-23T11:00:37.864Z,93.60
2022-08-23T11:03:12.653Z,92.07
2022-08-23T11:05:43.060Z,91.80
2022-08-23T11:08:13.007Z,90.60
2022-08-23T11:10:55.936Z,94.17
2022-08-23T11:13:26.706Z,90.23
2022-08-23T11:16:01.008Z,93.77
2022-08-23T11:18:48.511Z,93.77
2022-08-23T11:21:50.204Z,90.77
2022-08-23T11:24:32.530Z,93.57
2022-08-23T11:27:06.663Z,90.03
2022-08-23T11:29:36.540Z,94.40
2022-08-23T11:32:18.714Z,94.53
2022-08-23T11:34:50.877Z,91.83
2022-08-23T11:37:27.114Z,93.37
2022-08-23T11:40:04.255Z,92.37
2022-08-23T11:42:46.314Z,92.80
2022-08-23T11:45:22.840Z,94.47
2022-08-23T11:48:04.131Z,96.10
2022-08-23T11:50:35.563Z,92.63
2022-08-23T11:53:22.063Z,92.20
2022-08-23T11:56:03.026Z,93.77
2022-08-23T11:58:35.271Z,95.60
2022-08-23T12:01:08.391Z,96.07
2022-08-23T12:03:44.645Z,104.30
2022-08-23T12:06:32.223Z,91.33
2022-08-23T12:09:03.408Z,91.27
2022-08-23T12:11:46.622Z,94.83
2022-08-23T12:14:36.261Z,93.10
2022-08-23T12:17:05.909Z,94.83
2022-08-23T12:19:40.317Z,95.67
2022-08-23T12:22:11.382Z,97.93
2022-08-23T12:24:43.834Z,93.30
2022-08-23T12:27:15.231Z,94.33
2022-08-23T12:29:50.685Z,97.27
2022-08-23T12:32:21.941Z,92.63
2022-08-23T12:34:59.220Z,99.03
2022-08-23T12:37:32.777Z,102.07
2022-08-23T12:40:03.445Z,96.87
2022-08-23T12:42:33.306Z,92.70
2022-08-23T12:45:08.616Z,102.60
2022-08-23T12:47:42.291Z,99.10
2022-08-23T12:50:26.067Z,95.87
2022-08-23T12:53:03.569Z,106.20
2022-08-23T12:55:33.197Z,100.30
2022-08-23T12:58:04.903Z,93.77
2022-08-23T13:00:34.610Z,94.97
2022-08-23T13:03:04.212Z,101.47
2022-08-23T13:05:36.158Z,102.83
2022-08-23T13:08:07.376Z,99.17
2022-08-23T13:10:35.844Z,101.47
2022-08-23T13:13:04.373Z,96.33
2022-08-23T13:15:43.308Z,101.33
2022-08-23T13:18:11.801Z,101.53
2022-08-23T13:20:41.533Z,95.60
2022-08-23T13:23:10.376Z,101.70
2022-08-23T13:25:39.701Z,97.20
2022-08-23T13:28:09.647Z,103.30
2022-08-23T13:30:39.123Z,97.33
2022-08-23T13:33:22.968Z,95.90
2022-08-23T13:35:54.481Z,95.10
2022-08-23T13:38:24.619Z,93.43
2022-08-23T13:41:01.125Z,92.97
2022-08-23T13:43:31.935Z,91.20
2022-08-23T13:46:01.144Z,93.70
2022-08-23T13:48:32.062Z,102.53
2022-08-23T13:51:15.229Z,99.73
2022-08-23T13:53:44.793Z,92.67
2022-08-23T13:56:13.064Z,101.87
2022-08-23T13:58:41.321Z,91.73
2022-08-23T14:01:13.874Z,104.53
2022-08-23T14:03:42.193Z,93.30
2022-08-23T14:06:11.092Z,90.33
2022-08-23T14:08:39.362Z,99.17
2022-08-23T14:11:10.429Z,99.20
2022-08-23T14:13:38.723Z,94.43
2022-08-23T14:21:46.858Z,96.43
2022-08-23T14:24:15.095Z,101.33
2022-08-23T14:26:50.317Z,101.80
2022-08-23T14:29:22.294Z,99.67
2022-08-23T14:31:51.163Z,98.33
2022-08-23T14:34:19.573Z,95.17
2022-08-23T14:39:36.057Z,98.20
2022-08-23T14:42:06.052Z,101.70
2022-08-23T14:44:36.567Z,98.70
2022-08-23T14:47:05.426Z,104.70
2022-08-23T14:49:33.760Z,94.10
2022-08-23T14:52:02.122Z,102.80
2022-08-23T14:54:30.491Z,99.90
2022-08-23T14:56:58.808Z,97.27
2022-08-23T14:59:28.475Z,105.00
2022-08-23T15:01:56.893Z,97.93
2022-08-23T15:04:34.132Z,95.33
2022-08-23T15:07:19.451Z,92.27
2022-08-23T15:09:48.714Z,96.97
2022-08-23T15:15:07.853Z,98.83
2022-08-23T15:17:38.782Z,98.07
2022-08-23T15:20:07.645Z,98.23
2022-08-23T15:22:40.001Z,94.67
2022-08-23T15:25:13.406Z,101.63
2022-08-23T15:27:41.768Z,97.90
2022-08-23T15:30:12.487Z,97.97
2022-08-23T15:32:40.798Z,97.63
2022-08-23T15:35:20.758Z,93.23
2022-08-23T15:37:49.837Z,96.80
2022-08-23T15:40:18.438Z,96.87
2022-08-23T15:42:46.681Z,93.07
2022-08-23T15:45:16.662Z,93.07
2022-08-23T15:47:47.468Z,94.47
2022-08-23T15:50:16.003Z,94.90
2022-08-23T15:52:44.336Z,94.40
2022-08-23T15:55:13.774Z,94.03
2022-08-23T15:57:44.075Z,99.57
2022-08-23T16:00:13.408Z,97.53
2022-08-23T16:03:06.523Z,92.40
2022-08-23T16:05:31.956Z,96.13
2022-08-23T16:08:00.452Z,99.97
2022-08-23T16:10:29.086Z,95.60
2022-08-23T16:12:57.416Z,98.23
2022-08-23T16:15:25.732Z,96.77
2022-08-23T16:17:55.502Z,93.07
2022-08-23T16:20:23.802Z,96.77
2022-08-23T16:22:52.075Z,94.43
2022-08-23T16:25:20.584Z,93.07
2022-08-23T16:27:49.140Z,95.93
2022-08-23T16:30:18.156Z,108.40
2022-08-23T16:32:46.589Z,95.40
2022-08-23T16:35:17.970Z,96.30
2022-08-23T16:37:47.045Z,92.30
2022-08-23T16:40:15.991Z,93.83
2022-08-23T16:42:44.369Z,93.23
2022-08-23T16:45:13.210Z,92.30
2022-08-23T16:47:43.388Z,95.63
2022-08-23T16:50:21.873Z,103.40
2022-08-23T16:56:13.295Z,96.70
2022-08-23T16:58:41.699Z,113.10
2022-08-23T17:01:13.918Z,97.27
2022-08-23T17:03:42.350Z,93.33
2022-08-23T17:06:11.906Z,91.27
2022-08-23T17:11:46.775Z,106.87
2022-08-23T17:54:33.303Z,102.67
2022-08-23T17:57:01.798Z,102.30
2022-08-23T17:59:33.132Z,107.00
2022-08-23T18:02:01.393Z,119.00
2022-08-23T18:04:29.706Z,116.93
2022-08-23T18:06:59.188Z,101.90
2022-08-23T18:09:27.481Z,96.53
2022-08-23T18:11:57.130Z,103.37
2022-08-23T18:14:27.676Z,94.30
2022-08-23T18:16:56.043Z,99.83
2022-08-23T18:19:31.589Z,97.10
2022-08-23T18:22:02.483Z,100.17
2022-08-23T18:24:31.760Z,98.57
2022-08-23T18:27:21.479Z,105.27
2022-08-23T18:29:51.578Z,104.67
2022-08-23T18:32:20.651Z,101.40
2022-08-23T18:34:49.016Z,98.20
2022-08-23T18:37:21.434Z,95.13
2022-08-23T18:39:49.742Z,94.00
2022-08-23T18:42:19.451Z,97.90
2022-08-23T18:44:49.090Z,104.80
2022-08-23T18:47:17.465Z,100.17
2022-08-23T18:49:45.756Z,105.97
2022-08-23T18:52:14.005Z,100.30
2022-08-23T18:54:42.310Z,112.10
2022-08-23T18:57:15.705Z,100.03
2022-08-23T18:59:45.825Z,95.77
2022-08-23T19:02:14.203Z,99.63
2022-08-23T19:04:42.549Z,105.10
2022-08-23T19:07:10.869Z,98.07
2022-08-23T19:09:39.174Z,100.97
2022-08-23T19:12:07.784Z,111.40
2022-08-23T19:14:36.414Z,93.77
2022-08-23T19:17:11.238Z,95.87
2022-08-23T19:19:39.658Z,92.83
2022-08-23T19:22:09.002Z,91.77
2022-08-23T19:24:37.848Z,95.43
2022-08-23T19:27:06.834Z,93.83
2022-08-23T19:29:36.414Z,97.67
2022-08-23T19:32:07.183Z,96.60
2022-08-23T19:34:37.005Z,96.10
2022-08-23T19:37:05.909Z,99.00
2022-08-23T19:39:40.964Z,92.73
2022-08-23T19:42:11.703Z,108.20
2022-08-23T19:44:40.436Z,93.13
2022-08-23T19:47:13.520Z,106.30
2022-08-23T19:49:50.078Z,94.23
2022-08-23T19:52:18.409Z,99.67
2022-08-23T19:54:46.692Z,92.40
2022-08-23T19:57:15.091Z,94.33
2022-08-23T19:59:43.407Z,88.17
2022-08-23T20:02:13.897Z,97.20
2022-08-23T20:04:42.489Z,95.33
2022-08-23T20:07:12.105Z,92.10
2022-08-23T20:09:40.360Z,90.50
2022-08-23T20:12:08.811Z,94.13
2022-08-23T20:14:37.060Z,90.83
2022-08-23T20:17:07.403Z,94.10
2022-08-23T20:19:36.114Z,93.43
2022-08-23T20:22:22.969Z,101.17
2022-08-23T20:24:53.274Z,92.67
2022-08-23T20:27:28.396Z,93.27
2022-08-23T20:29:59.702Z,91.40
2022-08-23T20:32:28.055Z,91.07
2022-08-23T20:34:56.430Z,91.20
2022-08-23T20:37:25.314Z,87.57
2022-08-23T20:39:55.095Z,93.00
2022-08-23T20:42:23.441Z,103.90
2022-08-23T20:44:51.624Z,91.33
2022-08-23T20:47:19.949Z,91.77
2022-08-23T20:49:48.560Z,89.87
2022-08-23T20:52:18.176Z,93.10
2022-08-23T20:54:46.851Z,92.40
2022-08-23T20:57:16.533Z,89.83
2022-08-23T20:59:45.269Z,94.23
2022-08-23T21:02:14.106Z,89.37
2022-08-23T21:04:42.400Z,89.93
2022-08-23T21:07:10.651Z,91.20
2022-08-23T21:09:39.384Z,91.17
2022-08-23T21:12:07.903Z,92.87
2022-08-23T21:14:37.513Z,89.73
2022-08-23T21:17:05.783Z,88.10
2022-08-23T21:19:34.140Z,98.43
2022-08-23T21:22:02.399Z,98.20
2022-08-23T21:24:33.254Z,89.73
2022-08-23T21:27:01.556Z,94.10
2022-08-23T21:29:39.288Z,90.93
2022-08-23T21:32:07.983Z,99.10
2022-08-23T21:34:36.411Z,94.60
2022-08-23T21:37:04.689Z,91.43
2022-08-23T21:39:33.099Z,94.90
2022-08-23T21:42:01.668Z,89.77
2022-08-23T21:44:33.065Z,93.73
2022-08-23T21:47:03.254Z,94.33
2022-08-23T21:49:32.414Z,109.07
2022-08-23T21:52:00.937Z,89.03
2022-08-23T21:54:29.352Z,90.23
2022-08-23T21:56:58.407Z,120.83
2022-08-23T21:59:44.683Z,107.13
2022-08-23T22:02:14.847Z,118.77
2022-08-23T22:04:43.299Z,85.20
2022-08-23T22:07:11.772Z,89.60
2022-08-23T22:09:40.485Z,86.63
2022-08-23T22:12:09.842Z,91.40
2022-08-23T22:14:38.356Z,91.50
2022-08-23T22:17:06.869Z,88.53
2022-08-23T22:19:36.539Z,90.40
2022-08-23T22:22:04.896Z,111.87
2022-08-23T22:24:33.216Z,97.80
2022-08-23T22:27:01.574Z,87.63
2022-08-23T22:29:30.130Z,87.93
2022-08-23T22:31:58.721Z,87.37
2022-08-23T22:34:27.472Z,90.37
2022-08-23T22:36:57.317Z,87.43
2022-08-23T22:39:26.011Z,103.23
2022-08-23T22:41:55.002Z,88.77
2022-08-23T22:44:23.486Z,89.20
2022-08-23T22:46:51.940Z,89.50
2022-08-23T22:49:20.463Z,100.87
2022-08-23T22:51:49.641Z,90.43
2022-08-23T22:54:25.673Z,85.50
2022-08-23T22:56:56.527Z,87.33
2022-08-23T22:59:27.601Z,85.47
2022-08-23T23:02:02.160Z,94.67
2022-08-23T23:04:32.782Z,92.60
2022-08-23T23:07:02.997Z,88.67
2022-08-23T23:09:32.877Z,88.27
2022-08-23T23:12:01.321Z,85.17
2022-08-23T23:14:29.844Z,88.27
2022-08-23T23:16:58.219Z,89.53
2022-08-23T23:19:45.747Z,88.40
2022-08-23T23:22:14.930Z,86.17
2022-08-23T23:24:44.585Z,91.80
2022-08-23T23:27:12.872Z,94.00
2022-08-23T23:29:42.112Z,86.80
2022-08-23T23:32:10.585Z,87.10
2022-08-23T23:34:39.099Z,84.20
2022-08-23T23:37:07.765Z,96.33
2022-08-23T23:39:36.195Z,87.30
2022-08-23T23:42:06.041Z,89.50
2022-08-23T23:44:34.521Z,88.43
2022-08-23T23:47:03.336Z,86.83
2022-08-23T23:49:34.692Z,87.43
2022-08-23T23:52:03.926Z,88.67
2022-08-23T23:54:33.787Z,96.37
2022-08-23T23:57:02.238Z,87.50
2022-08-23T23:59:32.032Z,83.60
